sensor_id;sensor_type;location;lat;lon;timestamp;temperature;humidity
4399;DHT22;2213;49.720;7.296;2022-12-07T00:02:09;3.30;99.90
4399;DHT22;2213;49.720;7.296;2022-12-07T00:04:38;3.30;99.90
4399;DHT22;2213;49.720;7.296;2022-12-07T00:07:08;3.30;99.90
4399;DHT22;2213;49.720;7.296;2022-12-07T00:09:39;3.50;99.90
4399;DHT22;2213;49.720;7.296;2022-12-07T00:12:09;3.40;99.90
4399;DHT22;2213;49.720;7.296;2022-12-07T00:14:38;3.40;99.90
4399;DHT22;2213;49.720;7.296;2022-12-07T00:17:08;3.30;99.90
4399;DHT22;2213;49.720;7.296;2022-12-07T00:19:37;3.30;99.90
4399;DHT22;2213;49.720;7.296;2022-12-07T00:22:07;3.30;99.90
4399;DHT22;2213;49.720;7.296;2022-12-07T00:24:37;3.30;99.90
4399;DHT22;2213;49.720;7.296;2022-12-07T00:27:07;3.20;99.90
4399;DHT22;2213;49.720;7.296;2022-12-07T00:29:36;3.20;99.90
4399;DHT22;2213;49.720;7.296;2022-12-07T00:32:05;3.30;99.90
4399;DHT22;2213;49.720;7.296;2022-12-07T00:34:34;3.30;99.90
4399;DHT22;2213;49.720;7.296;2022-12-07T00:37:04;3.30;99.90
4399;DHT22;2213;49.720;7.296;2022-12-07T00:39:33;3.30;99.90
4399;DHT22;2213;49.720;7.296;2022-12-07T00:42:04;3.20;99.90
4399;DHT22;2213;49.720;7.296;2022-12-07T00:44:34;3.20;99.90
4399;DHT22;2213;49.720;7.296;2022-12-07T00:47:03;3.20;99.90
4399;DHT22;2213;49.720;7.296;2022-12-07T00:49:32;3.20;99.90
4399;DHT22;2213;49.720;7.296;2022-12-07T00:52:01;3.20;99.90
4399;DHT22;2213;49.720;7.296;2022-12-07T00:54:30;3.20;99.90
4399;DHT22;2213;49.720;7.296;2022-12-07T00:57:00;3.30;99.90
4399;DHT22;2213;49.720;7.296;2022-12-07T00:59:31;3.20;99.90
4399;DHT22;2213;49.720;7.296;2022-12-07T01:02:00;3.10;99.90
4399;DHT22;2213;49.720;7.296;2022-12-07T01:04:30;3.20;99.90
4399;DHT22;2213;49.720;7.296;2022-12-07T01:07:02;3.20;99.90
4399;DHT22;2213;49.720;7.296;2022-12-07T01:09:31;3.10;99.90
4399;DHT22;2213;49.720;7.296;2022-12-07T01:12:02;3.20;99.90
4399;DHT22;2213;49.720;7.296;2022-12-07T01:14:33;3.20;99.90
4399;DHT22;2213;49.720;7.296;2022-12-07T01:17:03;3.20;99.90
4399;DHT22;2213;49.720;7.296;2022-12-07T01:19:32;3.20;99.90
4399;DHT22;2213;49.720;7.296;2022-12-07T01:22:02;3.20;99.90
4399;DHT22;2213;49.720;7.296;2022-12-07T01:24:31;3.30;99.90
4399;DHT22;2213;49.720;7.296;2022-12-07T01:27:02;3.30;99.90
4399;DHT22;2213;49.720;7.296;2022-12-07T01:29:31;3.30;99.90
4399;DHT22;2213;49.720;7.296;2022-12-07T01:32:00;3.30;99.90
4399;DHT22;2213;49.720;7.296;2022-12-07T01:34:30;3.40;99.90
4399;DHT22;2213;49.720;7.296;2022-12-07T01:37:00;3.30;99.90
4399;DHT22;2213;49.720;7.296;2022-12-07T01:39:30;3.30;99.90
4399;DHT22;2213;49.720;7.296;2022-12-07T01:42:00;3.30;99.90
4399;DHT22;2213;49.720;7.296;2022-12-07T01:44:31;3.30;99.90
4399;DHT22;2213;49.720;7.296;2022-12-07T01:47:00;3.30;99.90
4399;DHT22;2213;49.720;7.296;2022-12-07T01:49:35;3.40;99.90
4399;DHT22;2213;49.720;7.296;2022-12-07T01:52:15;3.40;99.90
4399;DHT22;2213;49.720;7.296;2022-12-07T01:54:51;3.40;99.90
4399;DHT22;2213;49.720;7.296;2022-12-07T01:57:23;3.30;99.90
4399;DHT22;2213;49.720;7.296;2022-12-07T01:59:56;3.30;99.90
4399;DHT22;2213;49.720;7.296;2022-12-07T02:02:30;3.30;99.90
4399;DHT22;2213;49.720;7.296;2022-12-07T02:05:03;3.30;99.90
4399;DHT22;2213;49.720;7.296;2022-12-07T02:07:34;3.30;99.90
4399;DHT22;2213;49.720;7.296;2022-12-07T02:10:14;3.30;99.90
4399;DHT22;2213;49.720;7.296;2022-12-07T02:12:49;3.30;99.90
4399;DHT22;2213;49.720;7.296;2022-12-07T02:15:29;3.30;99.90
4399;DHT22;2213;49.720;7.296;2022-12-07T02:18:11;3.30;99.90
4399;DHT22;2213;49.720;7.296;2022-12-07T02:20:54;3.40;99.90
4399;DHT22;2213;49.720;7.296;2022-12-07T02:23:53;3.30;99.90
4399;DHT22;2213;49.720;7.296;2022-12-07T02:27:11;3.30;99.90
4399;DHT22;2213;49.720;7.296;2022-12-07T02:30:00;3.20;99.90
4399;DHT22;2213;49.720;7.296;2022-12-07T02:32:44;3.30;99.90
4399;DHT22;2213;49.720;7.296;2022-12-07T02:35:21;3.30;99.90
4399;DHT22;2213;49.720;7.296;2022-12-07T02:38:03;3.20;99.90
4399;DHT22;2213;49.720;7.296;2022-12-07T02:40:43;3.40;99.90
4399;DHT22;2213;49.720;7.296;2022-12-07T02:43:21;3.40;99.90
4399;DHT22;2213;49.720;7.296;2022-12-07T02:45:57;3.30;99.90
4399;DHT22;2213;49.720;7.296;2022-12-07T02:48:34;3.30;99.90
4399;DHT22;2213;49.720;7.296;2022-12-07T02:51:06;3.30;99.90
4399;DHT22;2213;49.720;7.296;2022-12-07T02:53:37;3.30;99.90
4399;DHT22;2213;49.720;7.296;2022-12-07T02:56:11;3.30;99.90
4399;DHT22;2213;49.720;7.296;2022-12-07T02:58:58;3.30;99.90
4399;DHT22;2213;49.720;7.296;2022-12-07T03:01:49;3.30;99.90
4399;DHT22;2213;49.720;7.296;2022-12-07T03:04:33;3.30;99.90
4399;DHT22;2213;49.720;7.296;2022-12-07T03:07:23;3.30;99.90
4399;DHT22;2213;49.720;7.296;2022-12-07T03:10:03;3.30;99.90
4399;DHT22;2213;49.720;7.296;2022-12-07T03:12:43;3.40;99.90
4399;DHT22;2213;49.720;7.296;2022-12-07T03:15:25;3.30;99.90
4399;DHT22;2213;49.720;7.296;2022-12-07T03:18:03;3.40;99.90
4399;DHT22;2213;49.720;7.296;2022-12-07T03:20:35;3.30;99.90
4399;DHT22;2213;49.720;7.296;2022-12-07T03:23:09;3.30;99.90
4399;DHT22;2213;49.720;7.296;2022-12-07T03:25:40;3.40;99.90
4399;DHT22;2213;49.720;7.296;2022-12-07T03:28:16;3.40;99.90
4399;DHT22;2213;49.720;7.296;2022-12-07T03:30:54;3.30;99.90
4399;DHT22;2213;49.720;7.296;2022-12-07T03:33:30;3.30;99.90
4399;DHT22;2213;49.720;7.296;2022-12-07T03:36:06;3.30;99.90
4399;DHT22;2213;49.720;7.296;2022-12-07T03:38:44;3.30;99.90
4399;DHT22;2213;49.720;7.296;2022-12-07T03:41:21;3.30;99.90
4399;DHT22;2213;49.720;7.296;2022-12-07T03:43:54;3.30;99.90
4399;DHT22;2213;49.720;7.296;2022-12-07T03:46:31;3.30;99.90
4399;DHT22;2213;49.720;7.296;2022-12-07T03:49:11;3.30;99.90
4399;DHT22;2213;49.720;7.296;2022-12-07T03:51:51;3.40;99.90
4399;DHT22;2213;49.720;7.296;2022-12-07T03:54:30;3.40;99.90
4399;DHT22;2213;49.720;7.296;2022-12-07T03:57:05;3.40;99.90
4399;DHT22;2213;49.720;7.296;2022-12-07T03:59:38;3.50;99.90
4399;DHT22;2213;49.720;7.296;2022-12-07T04:02:12;3.50;99.90
4399;DHT22;2213;49.720;7.296;2022-12-07T04:04:43;3.50;99.90
4399;DHT22;2213;49.720;7.296;2022-12-07T04:07:14;3.50;99.90
4399;DHT22;2213;49.720;7.296;2022-12-07T04:09:44;3.50;99.90
4399;DHT22;2213;49.720;7.296;2022-12-07T04:12:13;3.50;99.90
4399;DHT22;2213;49.720;7.296;2022-12-07T04:14:43;3.50;99.90
4399;DHT22;2213;49.720;7.296;2022-12-07T04:17:12;3.50;99.90
4399;DHT22;2213;49.720;7.296;2022-12-07T04:19:43;3.50;99.90
4399;DHT22;2213;49.720;7.296;2022-12-07T04:22:14;3.50;99.90
4399;DHT22;2213;49.720;7.296;2022-12-07T04:24:43;3.60;99.90
4399;DHT22;2213;49.720;7.296;2022-12-07T04:27:12;3.70;99.90
4399;DHT22;2213;49.720;7.296;2022-12-07T04:29:41;3.70;99.90
4399;DHT22;2213;49.720;7.296;2022-12-07T04:32:11;3.60;99.90
4399;DHT22;2213;49.720;7.296;2022-12-07T04:34:42;3.60;99.90
4399;DHT22;2213;49.720;7.296;2022-12-07T04:37:12;3.60;99.90
4399;DHT22;2213;49.720;7.296;2022-12-07T04:39:41;3.60;99.90
4399;DHT22;2213;49.720;7.296;2022-12-07T04:42:12;3.60;99.90
4399;DHT22;2213;49.720;7.296;2022-12-07T04:44:41;3.60;99.90
4399;DHT22;2213;49.720;7.296;2022-12-07T04:47:12;3.70;99.90
4399;DHT22;2213;49.720;7.296;2022-12-07T04:49:42;3.70;99.90
4399;DHT22;2213;49.720;7.296;2022-12-07T04:52:11;3.60;99.90
4399;DHT22;2213;49.720;7.296;2022-12-07T04:54:39;3.60;99.90
4399;DHT22;2213;49.720;7.296;2022-12-07T04:57:08;3.70;99.90
4399;DHT22;2213;49.720;7.296;2022-12-07T04:59:38;3.60;99.90
4399;DHT22;2213;49.720;7.296;2022-12-07T05:02:12;3.70;99.90
4399;DHT22;2213;49.720;7.296;2022-12-07T05:04:41;3.60;99.90
4399;DHT22;2213;49.720;7.296;2022-12-07T05:07:12;3.70;99.90
4399;DHT22;2213;49.720;7.296;2022-12-07T05:09:41;3.70;99.90
4399;DHT22;2213;49.720;7.296;2022-12-07T05:12:11;3.70;99.90
4399;DHT22;2213;49.720;7.296;2022-12-07T05:14:40;3.70;99.90
4399;DHT22;2213;49.720;7.296;2022-12-07T05:17:11;3.70;99.90
4399;DHT22;2213;49.720;7.296;2022-12-07T05:19:43;3.70;99.90
4399;DHT22;2213;49.720;7.296;2022-12-07T05:22:13;3.70;99.90
4399;DHT22;2213;49.720;7.296;2022-12-07T05:24:43;3.70;99.90
4399;DHT22;2213;49.720;7.296;2022-12-07T05:27:12;3.70;99.90
4399;DHT22;2213;49.720;7.296;2022-12-07T05:29:42;3.70;99.90
4399;DHT22;2213;49.720;7.296;2022-12-07T05:32:12;3.70;99.90
4399;DHT22;2213;49.720;7.296;2022-12-07T05:34:43;3.80;99.90
4399;DHT22;2213;49.720;7.296;2022-12-07T05:37:13;3.70;99.90
4399;DHT22;2213;49.720;7.296;2022-12-07T05:39:43;3.70;99.90
4399;DHT22;2213;49.720;7.296;2022-12-07T05:42:12;3.80;99.90
4399;DHT22;2213;49.720;7.296;2022-12-07T05:44:45;3.80;99.90
4399;DHT22;2213;49.720;7.296;2022-12-07T05:47:15;3.80;99.90
4399;DHT22;2213;49.720;7.296;2022-12-07T05:49:46;3.70;99.90
4399;DHT22;2213;49.720;7.296;2022-12-07T05:52:14;3.70;99.90
4399;DHT22;2213;49.720;7.296;2022-12-07T05:54:44;3.70;99.90
4399;DHT22;2213;49.720;7.296;2022-12-07T05:57:13;3.80;99.90
4399;DHT22;2213;49.720;7.296;2022-12-07T05:59:42;3.80;99.90
4399;DHT22;2213;49.720;7.296;2022-12-07T06:02:12;3.80;99.90
4399;DHT22;2213;49.720;7.296;2022-12-07T06:04:44;3.80;99.90
4399;DHT22;2213;49.720;7.296;2022-12-07T06:07:16;3.80;99.90
4399;DHT22;2213;49.720;7.296;2022-12-07T06:09:46;3.80;99.90
4399;DHT22;2213;49.720;7.296;2022-12-07T06:12:17;3.80;99.90
4399;DHT22;2213;49.720;7.296;2022-12-07T06:15:01;3.90;99.90
4399;DHT22;2213;49.720;7.296;2022-12-07T06:17:32;3.90;99.90
4399;DHT22;2213;49.720;7.296;2022-12-07T06:20:03;3.90;99.90
4399;DHT22;2213;49.720;7.296;2022-12-07T06:22:36;3.80;99.90
4399;DHT22;2213;49.720;7.296;2022-12-07T06:25:07;3.80;99.90
4399;DHT22;2213;49.720;7.296;2022-12-07T06:27:37;3.80;99.90
4399;DHT22;2213;49.720;7.296;2022-12-07T06:30:08;3.90;99.90
4399;DHT22;2213;49.720;7.296;2022-12-07T06:32:39;3.80;99.90
4399;DHT22;2213;49.720;7.296;2022-12-07T06:35:11;3.70;99.90
4399;DHT22;2213;49.720;7.296;2022-12-07T06:37:40;3.80;99.90
4399;DHT22;2213;49.720;7.296;2022-12-07T06:40:10;3.80;99.90
4399;DHT22;2213;49.720;7.296;2022-12-07T06:42:42;3.80;99.90
4399;DHT22;2213;49.720;7.296;2022-12-07T06:45:10;3.80;99.90
4399;DHT22;2213;49.720;7.296;2022-12-07T06:47:40;3.80;99.90
4399;DHT22;2213;49.720;7.296;2022-12-07T06:50:16;3.80;99.90
4399;DHT22;2213;49.720;7.296;2022-12-07T06:52:45;3.80;99.90
4399;DHT22;2213;49.720;7.296;2022-12-07T06:55:15;3.90;99.90
4399;DHT22;2213;49.720;7.296;2022-12-07T06:57:46;3.80;99.90
4399;DHT22;2213;49.720;7.296;2022-12-07T07:00:16;3.80;99.90
4399;DHT22;2213;49.720;7.296;2022-12-07T07:02:49;3.90;99.90
4399;DHT22;2213;49.720;7.296;2022-12-07T07:05:20;3.90;99.90
4399;DHT22;2213;49.720;7.296;2022-12-07T07:07:50;3.90;99.90
4399;DHT22;2213;49.720;7.296;2022-12-07T07:10:38;3.90;99.90
4399;DHT22;2213;49.720;7.296;2022-12-07T07:13:09;3.90;99.90
4399;DHT22;2213;49.720;7.296;2022-12-07T07:15:38;4.00;99.90
4399;DHT22;2213;49.720;7.296;2022-12-07T07:18:08;4.00;99.90
4399;DHT22;2213;49.720;7.296;2022-12-07T07:20:38;3.90;99.90
4399;DHT22;2213;49.720;7.296;2022-12-07T07:23:07;3.80;99.90
4399;DHT22;2213;49.720;7.296;2022-12-07T07:25:37;3.80;99.90
4399;DHT22;2213;49.720;7.296;2022-12-07T07:28:08;4.00;99.90
4399;DHT22;2213;49.720;7.296;2022-12-07T07:30:37;4.00;99.90
4399;DHT22;2213;49.720;7.296;2022-12-07T07:33:06;3.90;99.90
4399;DHT22;2213;49.720;7.296;2022-12-07T07:35:40;3.90;99.90
4399;DHT22;2213;49.720;7.296;2022-12-07T07:38:10;3.90;99.90
4399;DHT22;2213;49.720;7.296;2022-12-07T07:40:39;3.90;99.90
4399;DHT22;2213;49.720;7.296;2022-12-07T07:43:09;3.90;99.90
4399;DHT22;2213;49.720;7.296;2022-12-07T07:45:39;3.80;99.90
4399;DHT22;2213;49.720;7.296;2022-12-07T07:48:10;4.00;99.90
4399;DHT22;2213;49.720;7.296;2022-12-07T07:50:42;4.00;99.90
4399;DHT22;2213;49.720;7.296;2022-12-07T07:53:12;4.00;99.90
4399;DHT22;2213;49.720;7.296;2022-12-07T07:55:41;3.90;99.90
4399;DHT22;2213;49.720;7.296;2022-12-07T07:58:19;4.00;99.90
4399;DHT22;2213;49.720;7.296;2022-12-07T08:00:49;4.00;99.90
4399;DHT22;2213;49.720;7.296;2022-12-07T08:03:18;4.10;99.90
4399;DHT22;2213;49.720;7.296;2022-12-07T08:05:49;4.10;99.90
4399;DHT22;2213;49.720;7.296;2022-12-07T08:08:20;4.20;99.90
4399;DHT22;2213;49.720;7.296;2022-12-07T08:10:50;4.00;99.90
4399;DHT22;2213;49.720;7.296;2022-12-07T08:13:19;4.10;99.90
4399;DHT22;2213;49.720;7.296;2022-12-07T08:15:57;4.10;99.90
4399;DHT22;2213;49.720;7.296;2022-12-07T08:18:26;4.00;99.90
4399;DHT22;2213;49.720;7.296;2022-12-07T08:21:00;4.10;99.90
4399;DHT22;2213;49.720;7.296;2022-12-07T08:23:30;4.00;99.90
4399;DHT22;2213;49.720;7.296;2022-12-07T08:26:08;4.00;99.90
4399;DHT22;2213;49.720;7.296;2022-12-07T08:28:39;3.90;99.90
4399;DHT22;2213;49.720;7.296;2022-12-07T08:31:12;4.00;99.90
4399;DHT22;2213;49.720;7.296;2022-12-07T08:33:44;3.90;99.90
4399;DHT22;2213;49.720;7.296;2022-12-07T08:36:14;3.80;99.90
4399;DHT22;2213;49.720;7.296;2022-12-07T08:38:43;3.80;99.90
4399;DHT22;2213;49.720;7.296;2022-12-07T08:41:32;3.70;99.90
4399;DHT22;2213;49.720;7.296;2022-12-07T08:44:02;3.70;99.90
4399;DHT22;2213;49.720;7.296;2022-12-07T08:46:35;3.70;99.90
4399;DHT22;2213;49.720;7.296;2022-12-07T08:49:10;3.60;99.90
4399;DHT22;2213;49.720;7.296;2022-12-07T08:51:44;3.60;99.90
4399;DHT22;2213;49.720;7.296;2022-12-07T08:54:15;3.70;99.90
4399;DHT22;2213;49.720;7.296;2022-12-07T08:56:48;3.80;99.90
4399;DHT22;2213;49.720;7.296;2022-12-07T08:59:26;3.70;99.90
4399;DHT22;2213;49.720;7.296;2022-12-07T09:01:57;3.70;99.90
4399;DHT22;2213;49.720;7.296;2022-12-07T09:04:26;3.70;99.90
4399;DHT22;2213;49.720;7.296;2022-12-07T09:06:56;3.70;99.90
4399;DHT22;2213;49.720;7.296;2022-12-07T09:09:27;3.80;99.90
4399;DHT22;2213;49.720;7.296;2022-12-07T09:11:56;3.80;99.90
4399;DHT22;2213;49.720;7.296;2022-12-07T09:14:26;3.80;99.90
4399;DHT22;2213;49.720;7.296;2022-12-07T09:16:55;4.00;99.90
4399;DHT22;2213;49.720;7.296;2022-12-07T09:19:34;3.90;99.90
4399;DHT22;2213;49.720;7.296;2022-12-07T09:22:06;4.00;99.90
4399;DHT22;2213;49.720;7.296;2022-12-07T09:24:36;4.10;99.90
4399;DHT22;2213;49.720;7.296;2022-12-07T09:27:05;4.10;99.90
4399;DHT22;2213;49.720;7.296;2022-12-07T09:29:33;4.20;99.90
4399;DHT22;2213;49.720;7.296;2022-12-07T09:32:02;4.20;99.90
4399;DHT22;2213;49.720;7.296;2022-12-07T09:34:37;4.30;99.90
4399;DHT22;2213;49.720;7.296;2022-12-07T09:37:09;4.20;99.90
4399;DHT22;2213;49.720;7.296;2022-12-07T09:39:39;4.30;99.90
4399;DHT22;2213;49.720;7.296;2022-12-07T09:42:26;4.30;99.90
4399;DHT22;2213;49.720;7.296;2022-12-07T09:44:58;4.30;99.90
4399;DHT22;2213;49.720;7.296;2022-12-07T09:47:28;4.30;99.90
4399;DHT22;2213;49.720;7.296;2022-12-07T09:50:05;4.30;99.90
4399;DHT22;2213;49.720;7.296;2022-12-07T09:52:44;4.30;99.90
4399;DHT22;2213;49.720;7.296;2022-12-07T09:55:19;4.20;99.90
4399;DHT22;2213;49.720;7.296;2022-12-07T09:57:54;4.30;99.90
4399;DHT22;2213;49.720;7.296;2022-12-07T10:00:25;4.30;99.90
4399;DHT22;2213;49.720;7.296;2022-12-07T10:02:57;4.40;99.90
4399;DHT22;2213;49.720;7.296;2022-12-07T10:05:32;4.40;99.90
4399;DHT22;2213;49.720;7.296;2022-12-07T10:08:08;4.30;99.90
4399;DHT22;2213;49.720;7.296;2022-12-07T10:10:39;4.30;99.90
4399;DHT22;2213;49.720;7.296;2022-12-07T10:13:09;4.40;99.90
4399;DHT22;2213;49.720;7.296;2022-12-07T10:15:47;4.40;99.90
4399;DHT22;2213;49.720;7.296;2022-12-07T10:18:26;4.50;99.90
4399;DHT22;2213;49.720;7.296;2022-12-07T10:21:22;4.50;99.90
4399;DHT22;2213;49.720;7.296;2022-12-07T10:24:03;4.50;99.90
4399;DHT22;2213;49.720;7.296;2022-12-07T10:26:35;4.60;99.90
4399;DHT22;2213;49.720;7.296;2022-12-07T10:29:15;4.50;99.90
4399;DHT22;2213;49.720;7.296;2022-12-07T10:31:54;4.50;99.90
4399;DHT22;2213;49.720;7.296;2022-12-07T10:34:27;4.60;99.90
4399;DHT22;2213;49.720;7.296;2022-12-07T10:37:16;4.50;99.90
4399;DHT22;2213;49.720;7.296;2022-12-07T10:39:49;4.50;99.90
4399;DHT22;2213;49.720;7.296;2022-12-07T10:42:24;4.50;99.90
4399;DHT22;2213;49.720;7.296;2022-12-07T10:45:08;4.60;99.90
4399;DHT22;2213;49.720;7.296;2022-12-07T10:47:47;4.70;99.90
4399;DHT22;2213;49.720;7.296;2022-12-07T10:50:39;4.70;99.90
4399;DHT22;2213;49.720;7.296;2022-12-07T10:53:33;4.70;99.90
4399;DHT22;2213;49.720;7.296;2022-12-07T10:56:29;4.70;99.90
4399;DHT22;2213;49.720;7.296;2022-12-07T11:02:44;4.70;99.90
4399;DHT22;2213;49.720;7.296;2022-12-07T11:05:46;4.70;99.90
4399;DHT22;2213;49.720;7.296;2022-12-07T11:08:34;4.60;99.90
4399;DHT22;2213;49.720;7.296;2022-12-07T11:11:19;4.70;99.90
4399;DHT22;2213;49.720;7.296;2022-12-07T11:14:05;4.70;99.90
4399;DHT22;2213;49.720;7.296;2022-12-07T11:16:51;4.70;99.90
4399;DHT22;2213;49.720;7.296;2022-12-07T11:19:35;4.70;99.90
4399;DHT22;2213;49.720;7.296;2022-12-07T11:22:23;4.80;99.90
4399;DHT22;2213;49.720;7.296;2022-12-07T11:25:13;4.80;99.90
4399;DHT22;2213;49.720;7.296;2022-12-07T11:28:07;4.80;99.90
4399;DHT22;2213;49.720;7.296;2022-12-07T11:30:52;4.90;99.90
4399;DHT22;2213;49.720;7.296;2022-12-07T11:33:29;4.90;99.90
4399;DHT22;2213;49.720;7.296;2022-12-07T11:36:17;4.90;99.90
4399;DHT22;2213;49.720;7.296;2022-12-07T11:39:01;4.90;99.90
4399;DHT22;2213;49.720;7.296;2022-12-07T11:41:35;4.90;99.90
4399;DHT22;2213;49.720;7.296;2022-12-07T11:44:27;4.80;99.90
4399;DHT22;2213;49.720;7.296;2022-12-07T11:47:06;4.80;99.90
4399;DHT22;2213;49.720;7.296;2022-12-07T11:49:43;4.90;99.90
4399;DHT22;2213;49.720;7.296;2022-12-07T11:52:26;4.90;99.90
4399;DHT22;2213;49.720;7.296;2022-12-07T11:55:00;4.90;99.90
4399;DHT22;2213;49.720;7.296;2022-12-07T11:57:37;4.90;99.90
4399;DHT22;2213;49.720;7.296;2022-12-07T12:00:15;5.00;99.90
4399;DHT22;2213;49.720;7.296;2022-12-07T12:02:49;5.10;99.90
4399;DHT22;2213;49.720;7.296;2022-12-07T12:05:25;5.00;99.90
4399;DHT22;2213;49.720;7.296;2022-12-07T12:08:01;5.00;99.90
4399;DHT22;2213;49.720;7.296;2022-12-07T12:11:12;5.00;99.90
4399;DHT22;2213;49.720;7.296;2022-12-07T12:14:05;5.10;99.90
4399;DHT22;2213;49.720;7.296;2022-12-07T12:17:15;5.10;99.90
4399;DHT22;2213;49.720;7.296;2022-12-07T12:20:06;5.10;99.90
4399;DHT22;2213;49.720;7.296;2022-12-07T12:22:51;5.10;99.90
4399;DHT22;2213;49.720;7.296;2022-12-07T12:25:25;5.20;99.90
4399;DHT22;2213;49.720;7.296;2022-12-07T12:27:59;5.20;99.90
4399;DHT22;2213;49.720;7.296;2022-12-07T12:30:34;5.20;99.90
4399;DHT22;2213;49.720;7.296;2022-12-07T12:33:14;5.20;99.90
4399;DHT22;2213;49.720;7.296;2022-12-07T12:36:19;5.10;99.90
4399;DHT22;2213;49.720;7.296;2022-12-07T12:39:10;5.10;99.90
4399;DHT22;2213;49.720;7.296;2022-12-07T12:41:53;5.10;99.90
4399;DHT22;2213;49.720;7.296;2022-12-07T12:44:41;5.20;99.90
4399;DHT22;2213;49.720;7.296;2022-12-07T12:47:57;5.20;99.90
4399;DHT22;2213;49.720;7.296;2022-12-07T12:50:32;5.30;99.90
4399;DHT22;2213;49.720;7.296;2022-12-07T12:53:21;5.30;99.90
4399;DHT22;2213;49.720;7.296;2022-12-07T12:56:24;5.40;99.90
4399;DHT22;2213;49.720;7.296;2022-12-07T12:59:24;5.30;99.90
4399;DHT22;2213;49.720;7.296;2022-12-07T13:02:06;5.30;99.90
4399;DHT22;2213;49.720;7.296;2022-12-07T13:04:53;5.40;99.90
4399;DHT22;2213;49.720;7.296;2022-12-07T13:07:58;5.30;99.90
4399;DHT22;2213;49.720;7.296;2022-12-07T13:10:40;5.40;99.90
4399;DHT22;2213;49.720;7.296;2022-12-07T13:13:31;5.40;99.90
4399;DHT22;2213;49.720;7.296;2022-12-07T13:16:37;5.40;99.90
4399;DHT22;2213;49.720;7.296;2022-12-07T13:22:52;5.50;99.90
4399;DHT22;2213;49.720;7.296;2022-12-07T13:25:41;5.50;99.90
4399;DHT22;2213;49.720;7.296;2022-12-07T13:28:18;5.50;99.90
4399;DHT22;2213;49.720;7.296;2022-12-07T13:31:11;5.50;99.90
4399;DHT22;2213;49.720;7.296;2022-12-07T13:33:54;5.40;99.90
4399;DHT22;2213;49.720;7.296;2022-12-07T13:36:24;5.30;99.90
4399;DHT22;2213;49.720;7.296;2022-12-07T13:38:57;5.40;99.90
4399;DHT22;2213;49.720;7.296;2022-12-07T13:41:29;5.20;99.90
4399;DHT22;2213;49.720;7.296;2022-12-07T13:44:01;5.20;99.90
4399;DHT22;2213;49.720;7.296;2022-12-07T13:46:41;5.30;99.90
4399;DHT22;2213;49.720;7.296;2022-12-07T13:49:22;5.30;99.90
4399;DHT22;2213;49.720;7.296;2022-12-07T13:51:53;5.30;99.90
4399;DHT22;2213;49.720;7.296;2022-12-07T13:54:43;5.30;99.90
4399;DHT22;2213;49.720;7.296;2022-12-07T13:57:15;5.30;99.90
4399;DHT22;2213;49.720;7.296;2022-12-07T13:59:45;5.30;99.90
4399;DHT22;2213;49.720;7.296;2022-12-07T14:02:20;5.40;99.90
4399;DHT22;2213;49.720;7.296;2022-12-07T14:05:08;5.50;99.90
4399;DHT22;2213;49.720;7.296;2022-12-07T14:07:52;5.50;99.90
4399;DHT22;2213;49.720;7.296;2022-12-07T14:10:24;5.60;99.90
4399;DHT22;2213;49.720;7.296;2022-12-07T14:12:56;5.50;99.90
4399;DHT22;2213;49.720;7.296;2022-12-07T14:15:28;5.40;99.90
4399;DHT22;2213;49.720;7.296;2022-12-07T14:18:00;5.40;99.90
4399;DHT22;2213;49.720;7.296;2022-12-07T14:20:33;5.40;99.90
4399;DHT22;2213;49.720;7.296;2022-12-07T14:23:05;5.30;99.90
4399;DHT22;2213;49.720;7.296;2022-12-07T14:25:53;5.30;99.90
4399;DHT22;2213;49.720;7.296;2022-12-07T14:28:28;5.20;99.90
4399;DHT22;2213;49.720;7.296;2022-12-07T14:30:59;5.30;99.90
4399;DHT22;2213;49.720;7.296;2022-12-07T14:33:29;5.30;99.90
4399;DHT22;2213;49.720;7.296;2022-12-07T14:35:59;5.30;99.90
4399;DHT22;2213;49.720;7.296;2022-12-07T14:38:27;5.10;99.90
4399;DHT22;2213;49.720;7.296;2022-12-07T14:40:57;5.20;99.90
4399;DHT22;2213;49.720;7.296;2022-12-07T14:43:47;5.10;99.90
4399;DHT22;2213;49.720;7.296;2022-12-07T14:46:37;5.10;99.90
4399;DHT22;2213;49.720;7.296;2022-12-07T14:49:06;5.10;99.90
4399;DHT22;2213;49.720;7.296;2022-12-07T14:51:55;5.10;99.90
4399;DHT22;2213;49.720;7.296;2022-12-07T14:54:44;5.10;99.90
4399;DHT22;2213;49.720;7.296;2022-12-07T14:57:14;5.00;99.90
4399;DHT22;2213;49.720;7.296;2022-12-07T14:59:45;4.90;99.90
4399;DHT22;2213;49.720;7.296;2022-12-07T15:02:15;4.90;99.90
4399;DHT22;2213;49.720;7.296;2022-12-07T15:04:43;4.90;99.90
4399;DHT22;2213;49.720;7.296;2022-12-07T15:07:18;4.90;99.90
4399;DHT22;2213;49.720;7.296;2022-12-07T15:09:48;4.80;99.90
4399;DHT22;2213;49.720;7.296;2022-12-07T15:12:17;5.00;99.90
4399;DHT22;2213;49.720;7.296;2022-12-07T15:14:47;4.90;99.90
4399;DHT22;2213;49.720;7.296;2022-12-07T15:17:18;4.80;99.90
4399;DHT22;2213;49.720;7.296;2022-12-07T15:19:58;4.80;99.90
4399;DHT22;2213;49.720;7.296;2022-12-07T15:22:27;4.80;99.90
4399;DHT22;2213;49.720;7.296;2022-12-07T15:25:05;4.70;99.90
4399;DHT22;2213;49.720;7.296;2022-12-07T15:27:35;4.70;99.90
4399;DHT22;2213;49.720;7.296;2022-12-07T15:30:07;4.70;99.90
4399;DHT22;2213;49.720;7.296;2022-12-07T15:32:37;4.60;99.90
4399;DHT22;2213;49.720;7.296;2022-12-07T15:35:08;4.60;99.90
4399;DHT22;2213;49.720;7.296;2022-12-07T15:37:38;4.70;99.90
4399;DHT22;2213;49.720;7.296;2022-12-07T15:40:10;4.60;99.90
4399;DHT22;2213;49.720;7.296;2022-12-07T15:42:42;4.60;99.90
4399;DHT22;2213;49.720;7.296;2022-12-07T15:45:13;4.60;99.90
4399;DHT22;2213;49.720;7.296;2022-12-07T15:47:44;4.50;99.90
4399;DHT22;2213;49.720;7.296;2022-12-07T15:50:33;4.50;99.90
4399;DHT22;2213;49.720;7.296;2022-12-07T15:53:03;4.50;99.90
4399;DHT22;2213;49.720;7.296;2022-12-07T15:55:32;4.60;99.90
4399;DHT22;2213;49.720;7.296;2022-12-07T15:58:01;4.50;99.90
4399;DHT22;2213;49.720;7.296;2022-12-07T16:00:31;4.50;99.90
4399;DHT22;2213;49.720;7.296;2022-12-07T16:03:02;4.50;99.90
4399;DHT22;2213;49.720;7.296;2022-12-07T16:05:31;4.60;99.90
4399;DHT22;2213;49.720;7.296;2022-12-07T16:08:00;4.50;99.90
4399;DHT22;2213;49.720;7.296;2022-12-07T16:10:30;4.50;99.90
4399;DHT22;2213;49.720;7.296;2022-12-07T16:12:59;4.50;99.90
4399;DHT22;2213;49.720;7.296;2022-12-07T16:15:30;4.50;99.90
4399;DHT22;2213;49.720;7.296;2022-12-07T16:18:00;4.50;99.90
4399;DHT22;2213;49.720;7.296;2022-12-07T16:20:29;4.40;99.90
4399;DHT22;2213;49.720;7.296;2022-12-07T16:22:58;4.50;99.90
4399;DHT22;2213;49.720;7.296;2022-12-07T16:25:28;4.40;99.90
4399;DHT22;2213;49.720;7.296;2022-12-07T16:27:57;4.40;99.90
4399;DHT22;2213;49.720;7.296;2022-12-07T16:30:25;4.40;99.90
4399;DHT22;2213;49.720;7.296;2022-12-07T16:32:56;4.40;99.90
4399;DHT22;2213;49.720;7.296;2022-12-07T16:35:29;4.40;99.90
4399;DHT22;2213;49.720;7.296;2022-12-07T16:37:57;4.30;99.90
4399;DHT22;2213;49.720;7.296;2022-12-07T16:40:27;4.30;99.90
4399;DHT22;2213;49.720;7.296;2022-12-07T16:42:56;4.40;99.90
4399;DHT22;2213;49.720;7.296;2022-12-07T16:45:26;4.30;99.90
4399;DHT22;2213;49.720;7.296;2022-12-07T16:47:56;4.20;99.90
4399;DHT22;2213;49.720;7.296;2022-12-07T16:50:25;4.30;99.90
4399;DHT22;2213;49.720;7.296;2022-12-07T16:52:55;4.30;99.90
4399;DHT22;2213;49.720;7.296;2022-12-07T16:55:24;4.30;99.90
4399;DHT22;2213;49.720;7.296;2022-12-07T16:57:53;4.20;99.90
4399;DHT22;2213;49.720;7.296;2022-12-07T17:00:23;4.10;99.90
4399;DHT22;2213;49.720;7.296;2022-12-07T17:02:53;4.10;99.90
4399;DHT22;2213;49.720;7.296;2022-12-07T17:05:24;4.20;99.90
4399;DHT22;2213;49.720;7.296;2022-12-07T17:07:55;4.20;99.90
4399;DHT22;2213;49.720;7.296;2022-12-07T17:10:25;4.30;99.90
4399;DHT22;2213;49.720;7.296;2022-12-07T17:12:54;4.20;99.90
4399;DHT22;2213;49.720;7.296;2022-12-07T17:15:23;4.10;99.90